ESNS

Skellefteå Airport

Skellefteå, Sweden
TAF ESNS 171730Z 1718/1722 25004KT 9999 BKN020 PROB40 1718/1722 BKN012
Issued Valid From Valid To
Oct-17 @ 17:30 UTC
(4 hours ago)
Oct-17 @ 18:00 UTC
(3 hours ago)
Oct-17 @ 22:00 UTC
(in 37 minutes)
Oct-17 @ 18:00 to Oct-17 @ 22:00
TAF ESNS 171730Z 1718/1722 25004KT 9999 BKN020
Wind Visibility Clouds
250° at 4 knots 10,000+ meters
  • Broken at 2,000' AGL
Probable  (Probability 40%) Oct-17 @ 18:00 to Oct-17 @ 22:00
PROB40 1718/1722 BKN012
Clouds
  • Broken at 1,200' AGL
TAF ESNS 171730Z 1718/1722 25004KT 9999 BKN020 PROB40 1718/1722 BKN012
Issued Oct-17 @ 17:30 UTC
(4 hours ago)
Valid From Oct-17 @ 18:00 UTC
(3 hours ago)
Valid To Oct-17 @ 22:00 UTC
(in 37 minutes)
Oct-17 @ 18:00 - Oct-17 @ 22:00
Wind Visibility
250° at 4 knots 10,000+ meters
Clouds
  • Broken at 2,000' AGL
Probability 40% Probable Oct-17 @ 18:00 - Oct-17 @ 22:00
Clouds
  • Broken at 1,200' AGL